首页
METAR-TAF:

METAR-TAF

机场 :

Baker Municipal Airport

Baker, 蒙大拿州, 美国

纬度: 46-20-52N, 经度: 104-15-27W, 海拔: 905米

当前天气观测

该预报发布于16分钟前的03:51 UTC
静风
温度 -18°C
湿度 92%
气压 1031 hPa
能見度: 16.1公里
天空无云

METAR: KBHK 260351Z AUTO 00000KT 10SM CLR M18/M19 A3046 RMK AO2 SLP372 I1001 T11781194

时间: 21:07 (04:07 UTC)


TAF: 丢失

超过4000个机场的气象观测和天气预报(METAR&TAF报告)。

可查询的气象台以黄色和红色小点在地图上表示。

将鼠标移到小点上方,可查看气象台名称。

然后点击查看天气观测和预报。

如需切换地图:点击带黑十字的绿色按钮放大地图;点击带横线的绿色按钮缩小地图;或者点击绿色箭头查看邻近地区的地图。


METAR-TAF: